Time;durP1;ratioP1;P1;durP2;ratioP2;P2;SDS_P1;SDS_P2;PMS_P1;PMS_P2;Temp;Humidity;BMP_temperature;BMP_pressure;BME280_temperature;BME280_humidity;BME280_pressure;Samples;Min_cycle;Max_cycle;Signal;HPM_P1;HPM_P2
2023/08/21 00:01:23;;;;;;;4.25;2.30;;;18.20;99.90;;;;;;4967803;28;37203;-81
2023/08/21 00:03:49;;;;;;;5.90;2.03;;;18.20;99.90;;;;;;4970676;28;38568;-81
2023/08/21 00:06:15;;;;;;;5.32;2.17;;;18.30;99.90;;;;;;4966169;28;38586;-81
2023/08/21 00:08:41;;;;;;;4.75;1.73;;;18.20;99.90;;;;;;4968713;28;37907;-81
2023/08/21 00:11:07;;;;;;;5.53;1.98;;;18.30;99.90;;;;;;4959890;28;37362;-81
2023/08/21 00:13:33;;;;;;;5.05;1.98;;;18.30;99.90;;;;;;4977482;28;37676;-81
2023/08/21 00:16:00;;;;;;;2.58;1.73;;;18.30;99.90;;;;;;4960822;28;37492;-82
2023/08/21 00:18:26;;;;;;;5.47;2.00;;;18.30;99.90;;;;;;4960811;28;37794;-80
2023/08/21 00:20:52;;;;;;;3.95;1.63;;;18.30;99.90;;;;;;4960763;28;35777;-80
2023/08/21 00:23:18;;;;;;;6.38;1.90;;;18.40;99.90;;;;;;4958475;28;38484;-81
2023/08/21 00:25:47;;;;;;;3.85;2.08;;;18.40;99.90;;;;;;4961482;28;38681;-80
2023/08/21 00:28:14;;;;;;;6.10;2.10;;;18.40;99.90;;;;;;4960447;28;38006;-81
2023/08/21 00:30:42;;;;;;;5.28;2.10;;;18.50;99.90;;;;;;4962279;28;36909;-81
2023/08/21 00:33:08;;;;;;;3.28;1.70;;;18.50;99.90;;;;;;4960314;28;39865;-81
2023/08/21 00:35:34;;;;;;;2.88;1.60;;;18.50;99.90;;;;;;4964673;28;39066;-81
2023/08/21 00:38:00;;;;;;;3.53;1.77;;;18.50;99.90;;;;;;4961328;28;39446;-81
2023/08/21 00:40:26;;;;;;;4.18;2.10;;;18.50;99.90;;;;;;4977282;28;38003;-81
2023/08/21 00:42:52;;;;;;;7.10;2.33;;;18.50;99.90;;;;;;4964132;28;39973;-80
2023/08/21 00:45:18;;;;;;;5.70;1.83;;;18.40;99.90;;;;;;4962977;28;38253;-81
2023/08/21 00:47:45;;;;;;;4.72;1.92;;;18.50;99.90;;;;;;4961331;28;37173;-81
2023/08/21 00:50:11;;;;;;;2.97;1.67;;;18.40;99.90;;;;;;4964995;28;35016;-80
2023/08/21 00:52:42;;;;;;;2.67;1.45;;;18.40;99.90;;;;;;4976020;28;37767;-80
2023/08/21 00:55:09;;;;;;;4.32;1.80;;;18.30;99.90;;;;;;4972412;28;37200;-80
2023/08/21 00:57:37;;;;;;;5.38;2.20;;;18.30;99.90;;;;;;4975129;28;37191;-80
2023/08/21 01:00:04;;;;;;;6.57;2.42;;;18.30;99.90;;;;;;4975595;28;37515;-80
2023/08/21 01:02:30;;;;;;;7.50;1.95;;;18.30;99.90;;;;;;5404585;23;39399;-76
2023/08/21 01:04:57;;;;;;;5.13;1.80;;;18.20;99.90;;;;;;4991569;28;37654;-76
2023/08/21 01:07:23;;;;;;;7.75;1.80;;;18.20;99.90;;;;;;5003442;28;37061;-74
2023/08/21 01:09:58;;;;;;;3.45;1.65;;;18.20;99.90;;;;;;5001935;28;36118;-74
2023/08/21 01:12:47;;;;;;;3.40;1.75;;;18.20;99.90;;;;;;4996744;28;39184;-76
2023/08/21 01:15:14;;;;;;;3.35;1.58;;;18.10;99.90;;;;;;5014478;28;37796;-75
2023/08/21 01:17:42;;;;;;;3.75;1.23;;;18.10;99.90;;;;;;4996448;28;38448;-77
2023/08/21 01:20:11;;;;;;;4.03;1.88;;;18.00;99.90;;;;;;5001985;28;38221;-76
2023/08/21 01:22:40;;;;;;;5.47;1.92;;;18.00;99.90;;;;;;5003299;28;39674;-76
2023/08/21 01:25:08;;;;;;;3.97;1.70;;;18.00;99.90;;;;;;5002136;28;37360;-74
2023/08/21 01:27:35;;;;;;;4.63;1.77;;;18.00;99.90;;;;;;5001263;28;37173;-74
2023/08/21 01:30:05;;;;;;;6.13;1.85;;;17.90;99.90;;;;;;4994099;28;37363;-75
2023/08/21 01:32:53;;;;;;;3.55;1.67;;;17.90;99.90;;;;;;4995952;28;47233;-75
2023/08/21 01:35:20;;;;;;;5.75;1.60;;;17.90;99.90;;;;;;4995043;28;39529;-74
2023/08/21 01:37:47;;;;;;;6.07;2.35;;;17.90;99.90;;;;;;4997203;28;37665;-74
2023/08/21 01:40:23;;;;;;;6.28;1.65;;;17.90;99.90;;;;;;4998073;28;36057;-74
2023/08/21 01:42:49;;;;;;;3.58;1.58;;;18.00;99.90;;;;;;4999361;28;39420;-74
2023/08/21 01:45:16;;;;;;;5.20;2.08;;;17.90;99.90;;;;;;4995285;28;39301;-75
2023/08/21 01:47:42;;;;;;;4.90;1.50;;;17.90;99.90;;;;;;4999006;28;37608;-74
2023/08/21 01:50:08;;;;;;;3.30;1.45;;;17.90;99.90;;;;;;4998163;28;37158;-75
2023/08/21 01:52:35;;;;;;;4.97;1.80;;;17.90;99.90;;;;;;5005333;28;38663;-74
2023/08/21 01:55:01;;;;;;;5.65;1.98;;;17.90;99.90;;;;;;5004194;28;37345;-75
2023/08/21 01:57:27;;;;;;;4.63;1.77;;;17.90;99.90;;;;;;4997098;28;37384;-74
2023/08/21 01:59:53;;;;;;;5.28;1.73;;;17.90;99.90;;;;;;5005805;28;37337;-74
2023/08/21 02:02:19;;;;;;;6.32;1.80;;;17.90;99.90;;;;;;5000606;28;38590;-74
2023/08/21 02:04:45;;;;;;;5.63;1.75;;;17.90;99.90;;;;;;4994589;28;38774;-75
2023/08/21 02:07:11;;;;;;;4.80;1.77;;;17.80;99.90;;;;;;4992406;28;37834;-74
2023/08/21 02:09:37;;;;;;;3.83;1.98;;;17.90;99.90;;;;;;4995860;28;36977;-74
2023/08/21 02:12:04;;;;;;;6.95;1.90;;;17.80;99.90;;;;;;4991674;28;38988;-75
2023/08/21 02:14:30;;;;;;;8.90;2.67;;;17.80;99.90;;;;;;4994081;28;37615;-74
2023/08/21 02:16:56;;;;;;;7.18;1.75;;;17.80;99.90;;;;;;4993563;28;37387;-75
2023/08/21 02:19:22;;;;;;;5.53;1.90;;;17.70;99.90;;;;;;4996584;28;37269;-74
2023/08/21 02:21:48;;;;;;;5.40;1.85;;;17.70;99.90;;;;;;4999063;28;37990;-75
2023/08/21 02:24:14;;;;;;;4.45;1.60;;;17.70;99.90;;;;;;5002204;28;37560;-75
2023/08/21 02:26:42;;;;;;;5.15;1.70;;;17.70;99.90;;;;;;5001078;28;37723;-75
2023/08/21 02:29:08;;;;;;;4.30;1.70;;;17.70;99.90;;;;;;5002175;28;37416;-77
2023/08/21 02:31:34;;;;;;;5.00;1.77;;;17.60;99.90;;;;;;4995672;28;38795;-77
2023/08/21 02:34:00;;;;;;;6.07;2.03;;;17.60;99.90;;;;;;4993571;28;37571;-76
2023/08/21 02:36:27;;;;;;;6.20;1.95;;;17.60;99.90;;;;;;4997823;28;47569;-76
2023/08/21 02:38:53;;;;;;;5.57;2.08;;;17.50;99.90;;;;;;4994179;28;36046;-74
2023/08/21 02:41:19;;;;;;;3.78;1.52;;;17.50;99.90;;;;;;4996905;28;39561;-74
2023/08/21 02:43:45;;;;;;;7.47;1.60;;;17.50;99.90;;;;;;4992482;28;37355;-74
2023/08/21 02:46:11;;;;;;;5.25;1.80;;;17.40;99.90;;;;;;4992357;28;37037;-75
2023/08/21 02:48:37;;;;;;;5.82;2.05;;;17.30;99.90;;;;;;4996851;28;37169;-75
2023/08/21 02:51:04;;;;;;;4.75;1.58;;;17.30;99.90;;;;;;4996520;28;40687;-75
2023/08/21 02:53:30;;;;;;;3.92;1.35;;;17.30;99.90;;;;;;4995362;28;39359;-74
2023/08/21 02:55:56;;;;;;;4.55;1.70;;;17.30;99.90;;;;;;4995837;28;36892;-75
2023/08/21 02:58:22;;;;;;;5.65;1.65;;;17.30;99.90;;;;;;4994670;28;37098;-74
2023/08/21 03:00:48;;;;;;;4.32;1.75;;;17.30;99.90;;;;;;4994551;28;37584;-75
2023/08/21 03:03:14;;;;;;;4.30;1.45;;;17.30;99.90;;;;;;4993730;28;38302;-75
2023/08/21 03:05:40;;;;;;;6.47;2.10;;;17.30;99.90;;;;;;4996227;28;39325;-75
2023/08/21 03:08:07;;;;;;;6.90;2.00;;;17.30;99.90;;;;;;4992769;28;37038;-75
2023/08/21 03:10:34;;;;;;;6.05;2.20;;;17.30;99.90;;;;;;4994556;28;38307;-74
2023/08/21 03:13:00;;;;;;;6.05;1.73;;;17.30;99.90;;;;;;4995246;28;38814;-74
2023/08/21 03:15:26;;;;;;;5.07;1.85;;;17.30;99.90;;;;;;4995607;28;42064;-74
2023/08/21 03:17:52;;;;;;;3.78;1.60;;;17.30;99.90;;;;;;5000034;28;37172;-74
2023/08/21 03:20:18;;;;;;;4.55;2.17;;;17.30;99.90;;;;;;4999814;28;38957;-74
2023/08/21 03:22:44;;;;;;;5.30;2.00;;;17.30;99.90;;;;;;5014375;28;36191;-75
2023/08/21 03:25:11;;;;;;;6.18;1.80;;;17.30;99.90;;;;;;5001073;28;39096;-74
2023/08/21 03:27:39;;;;;;;4.55;1.58;;;17.20;99.90;;;;;;4997302;28;36101;-74
2023/08/21 03:30:06;;;;;;;3.85;1.40;;;17.20;99.90;;;;;;4996279;28;38798;-74
2023/08/21 03:32:33;;;;;;;6.88;2.00;;;17.20;99.90;;;;;;5000041;28;48823;-74
2023/08/21 03:34:59;;;;;;;3.72;1.63;;;17.20;99.90;;;;;;5000226;28;37888;-74
2023/08/21 03:37:25;;;;;;;6.32;1.80;;;17.20;99.90;;;;;;4998533;28;37862;-74
2023/08/21 03:39:51;;;;;;;6.75;1.88;;;17.20;99.90;;;;;;4999029;28;37623;-74
2023/08/21 03:42:18;;;;;;;8.30;2.22;;;17.20;99.90;;;;;;4996006;28;38493;-74
2023/08/21 03:44:44;;;;;;;5.38;2.25;;;17.20;99.90;;;;;;4996549;28;36881;-75
2023/08/21 03:47:10;;;;;;;6.25;2.00;;;17.10;99.90;;;;;;4998779;28;37272;-74
2023/08/21 03:49:36;;;;;;;8.05;2.40;;;17.10;99.90;;;;;;4996746;28;38220;-74
2023/08/21 03:52:02;;;;;;;5.85;1.83;;;17.00;99.90;;;;;;4999242;28;37412;-75
2023/08/21 03:54:28;;;;;;;4.72;2.03;;;17.00;99.90;;;;;;4994524;28;46824;-75
2023/08/21 03:56:54;;;;;;;7.47;2.00;;;17.00;99.90;;;;;;4996695;28;37115;-76
2023/08/21 03:59:22;;;;;;;5.10;1.88;;;17.00;99.90;;;;;;4989729;28;39432;-75
2023/08/21 04:01:48;;;;;;;4.53;1.80;;;17.00;99.90;;;;;;4992769;28;37596;-76
2023/08/21 04:04:14;;;;;;;5.43;2.05;;;16.90;99.90;;;;;;4990513;28;37773;-75
2023/08/21 04:06:41;;;;;;;5.18;2.08;;;16.90;99.90;;;;;;4995800;28;37393;-76
2023/08/21 04:09:07;;;;;;;3.58;2.15;;;16.90;99.90;;;;;;4993195;28;39578;-75
2023/08/21 04:11:33;;;;;;;3.88;1.67;;;16.90;99.90;;;;;;4997747;28;36753;-75
2023/08/21 04:13:59;;;;;;;5.80;2.40;;;16.90;99.90;;;;;;4996538;28;36767;-75
2023/08/21 04:16:25;;;;;;;2.75;1.95;;;16.90;99.90;;;;;;4996200;28;37838;-75
2023/08/21 04:18:51;;;;;;;5.90;1.95;;;16.90;99.90;;;;;;5001473;28;39950;-75
2023/08/21 04:21:17;;;;;;;3.85;1.70;;;16.90;99.90;;;;;;5002314;28;37427;-74
2023/08/21 04:23:45;;;;;;;5.03;1.70;;;16.90;99.90;;;;;;5002470;28;37801;-75
2023/08/21 04:26:11;;;;;;;6.72;1.85;;;16.90;99.90;;;;;;5001397;28;35966;-74
2023/08/21 04:28:37;;;;;;;5.50;1.98;;;16.90;99.90;;;;;;5003867;28;37870;-74
2023/08/21 04:31:07;;;;;;;5.03;2.15;;;16.80;99.90;;;;;;5003748;28;38426;-75
2023/08/21 04:33:34;;;;;;;3.55;1.90;;;16.80;99.90;;;;;;5003824;28;39098;-74
2023/08/21 04:36:00;;;;;;;5.95;2.03;;;16.80;99.90;;;;;;5003585;28;36218;-74
2023/08/21 04:38:27;;;;;;;7.82;2.75;;;16.80;99.90;;;;;;4999451;28;38112;-75
2023/08/21 04:40:53;;;;;;;7.45;2.17;;;16.80;99.90;;;;;;4997419;28;37296;-74
2023/08/21 04:43:19;;;;;;;7.20;2.05;;;16.80;99.90;;;;;;4996912;28;37253;-75
2023/08/21 04:45:50;;;;;;;6.03;2.13;;;16.80;99.90;;;;;;4997755;28;36955;-75
2023/08/21 04:48:16;;;;;;;3.03;1.92;;;16.80;99.90;;;;;;4996548;28;38752;-74
2023/08/21 04:50:43;;;;;;;5.50;2.00;;;16.80;99.90;;;;;;4994600;28;37436;-74
2023/08/21 04:53:09;;;;;;;4.60;2.15;;;16.70;99.90;;;;;;4990105;28;37670;-74
2023/08/21 04:55:36;;;;;;;7.80;2.25;;;16.70;99.90;;;;;;4995011;28;36414;-74
2023/08/21 04:58:03;;;;;;;5.55;2.15;;;16.70;99.90;;;;;;4996196;28;38272;-74
2023/08/21 05:00:29;;;;;;;5.28;2.05;;;16.70;99.90;;;;;;4993176;28;37215;-75
2023/08/21 05:02:55;;;;;;;8.70;2.63;;;16.70;99.90;;;;;;4995076;28;38316;-74
2023/08/21 05:05:21;;;;;;;6.68;1.98;;;16.70;99.90;;;;;;4994344;28;37444;-75
2023/08/21 05:07:47;;;;;;;4.82;2.28;;;16.70;99.90;;;;;;4995070;28;38481;-74
2023/08/21 05:10:13;;;;;;;8.55;2.50;;;16.70;99.90;;;;;;4996599;28;38917;-74
2023/08/21 05:12:40;;;;;;;5.68;2.05;;;16.70;99.90;;;;;;4999727;28;37242;-75
2023/08/21 05:15:06;;;;;;;4.00;2.10;;;16.70;99.90;;;;;;4998498;28;36035;-74
2023/08/21 05:17:32;;;;;;;6.15;2.42;;;16.70;99.90;;;;;;5001989;28;37530;-73
2023/08/21 05:19:58;;;;;;;6.18;2.00;;;16.80;99.90;;;;;;4995422;28;37409;-74
2023/08/21 05:22:24;;;;;;;5.35;2.10;;;16.80;99.90;;;;;;4995177;28;35586;-74
2023/08/21 05:24:50;;;;;;;5.28;2.33;;;16.80;99.90;;;;;;5006952;28;37113;-74
2023/08/21 05:27:17;;;;;;;5.13;2.20;;;16.80;99.90;;;;;;4994090;28;38565;-74
2023/08/21 05:29:43;;;;;;;7.03;2.50;;;16.80;99.90;;;;;;4995453;28;37405;-74
2023/08/21 05:32:09;;;;;;;4.50;2.00;;;16.90;99.90;;;;;;5000221;28;38617;-74
2023/08/21 05:34:35;;;;;;;11.35;2.97;;;16.90;99.90;;;;;;4996800;28;37696;-74
2023/08/21 05:37:01;;;;;;;8.07;2.35;;;16.90;99.90;;;;;;4990561;28;37441;-73
2023/08/21 05:39:27;;;;;;;5.43;1.83;;;16.90;99.90;;;;;;4991196;28;47477;-73
2023/08/21 05:41:53;;;;;;;5.22;2.35;;;17.00;99.90;;;;;;4993361;28;37899;-75
2023/08/21 05:44:19;;;;;;;6.60;2.70;;;17.00;99.90;;;;;;4989463;28;36036;-75
2023/08/21 05:46:46;;;;;;;5.60;2.00;;;17.00;99.90;;;;;;4993509;28;38619;-76
2023/08/21 05:49:12;;;;;;;7.70;2.65;;;17.10;99.90;;;;;;4993891;28;37949;-76
2023/08/21 05:51:38;;;;;;;5.68;2.50;;;17.20;99.90;;;;;;4996678;28;38797;-76
2023/08/21 05:54:04;;;;;;;6.00;2.80;;;17.20;99.90;;;;;;4992329;28;37185;-75
2023/08/21 05:56:30;;;;;;;11.48;3.35;;;17.30;99.90;;;;;;4994030;28;38715;-75
2023/08/21 05:58:56;;;;;;;10.02;2.70;;;17.30;99.90;;;;;;4995803;28;37340;-75
2023/08/21 06:01:22;;;;;;;8.48;3.03;;;17.40;99.90;;;;;;5004196;28;38034;-75
2023/08/21 06:03:48;;;;;;;7.25;3.08;;;17.50;99.90;;;;;;5001921;28;37656;-76
2023/08/21 06:06:15;;;;;;;12.32;3.42;;;17.70;99.90;;;;;;4997774;28;37371;-75
2023/08/21 06:08:41;;;;;;;16.35;3.80;;;17.70;99.90;;;;;;4992321;28;37523;-75
2023/08/21 06:11:07;;;;;;;7.80;3.30;;;17.90;99.90;;;;;;4997547;28;38041;-75
2023/08/21 06:13:33;;;;;;;13.73;3.45;;;18.00;99.90;;;;;;5002483;28;38224;-76
2023/08/21 06:15:59;;;;;;;9.40;3.50;;;18.00;99.90;;;;;;4995658;28;38079;-76
2023/08/21 06:18:25;;;;;;;12.60;3.60;;;18.10;99.90;;;;;;5000112;28;36613;-76
2023/08/21 06:20:53;;;;;;;10.70;3.97;;;18.20;99.90;;;;;;5004468;28;37290;-76
2023/08/21 06:23:20;;;;;;;10.77;3.70;;;18.30;99.90;;;;;;5008009;28;37073;-75
2023/08/21 06:25:50;;;;;;;13.90;3.78;;;18.40;99.90;;;;;;5002619;28;38307;-76
2023/08/21 06:28:16;;;;;;;15.63;3.63;;;18.40;99.90;;;;;;5002352;28;39081;-75
2023/08/21 06:30:42;;;;;;;14.93;3.85;;;18.50;99.90;;;;;;5003277;28;38612;-76
2023/08/21 06:33:08;;;;;;;11.10;3.90;;;18.50;99.90;;;;;;5007062;28;36500;-76
2023/08/21 06:35:37;;;;;;;16.70;3.97;;;18.60;99.90;;;;;;4999585;28;39849;-76
2023/08/21 06:38:04;;;;;;;11.98;3.83;;;18.70;99.90;;;;;;5006324;28;39530;-76
2023/08/21 06:40:30;;;;;;;12.43;3.35;;;18.70;99.90;;;;;;5002686;28;38010;-77
2023/08/21 06:42:56;;;;;;;8.75;3.40;;;18.80;99.90;;;;;;5002858;28;37942;-76
2023/08/21 06:45:22;;;;;;;14.02;4.07;;;18.80;99.90;;;;;;4994288;28;37704;-76
2023/08/21 06:47:50;;;;;;;18.52;3.72;;;18.90;99.90;;;;;;4993458;28;37818;-75
2023/08/21 06:50:16;;;;;;;15.95;3.63;;;19.00;99.90;;;;;;4993003;28;38402;-76
2023/08/21 06:52:43;;;;;;;11.88;3.40;;;19.00;99.90;;;;;;4995549;28;36078;-75
2023/08/21 06:55:09;;;;;;;13.82;3.47;;;19.00;99.90;;;;;;4995637;28;37905;-76
2023/08/21 06:57:37;;;;;;;12.82;3.50;;;19.10;99.90;;;;;;4994932;28;38799;-76
2023/08/21 07:00:05;;;;;;;16.83;3.83;;;19.20;99.90;;;;;;4994950;28;38933;-75
2023/08/21 07:02:31;;;;;;;8.75;2.78;;;19.20;99.90;;;;;;4996358;28;36287;-76
2023/08/21 07:04:57;;;;;;;13.65;3.13;;;19.20;99.90;;;;;;4995800;28;37471;-76
2023/08/21 07:07:24;;;;;;;9.45;2.90;;;19.30;99.90;;;;;;4991535;28;37181;-76
2023/08/21 07:09:51;;;;;;;10.40;3.78;;;19.40;99.90;;;;;;4995851;28;37709;-76
2023/08/21 07:12:17;;;;;;;8.57;3.05;;;19.40;99.90;;;;;;4996850;28;36988;-75
2023/08/21 07:14:43;;;;;;;11.02;3.22;;;19.50;99.90;;;;;;4995682;28;39934;-76
2023/08/21 07:17:09;;;;;;;8.82;3.13;;;19.60;99.90;;;;;;4990362;28;39296;-76
2023/08/21 07:19:35;;;;;;;9.18;2.95;;;19.80;99.90;;;;;;4997101;28;37616;-75
2023/08/21 07:22:01;;;;;;;14.15;3.45;;;20.20;99.90;;;;;;4995449;28;37550;-77
2023/08/21 07:24:28;;;;;;;9.85;2.58;;;20.50;99.90;;;;;;4997390;28;39214;-75
2023/08/21 07:26:54;;;;;;;12.73;3.33;;;20.90;99.90;;;;;;4994104;28;38428;-75
2023/08/21 07:29:20;;;;;;;10.57;3.25;;;20.90;99.90;;;;;;4990154;28;36826;-75
2023/08/21 07:31:46;;;;;;;10.85;2.67;;;20.90;99.90;;;;;;4993539;28;36986;-74
2023/08/21 07:34:12;;;;;;;10.07;2.53;;;20.90;99.90;;;;;;4988611;28;39128;-74
2023/08/21 07:36:38;;;;;;;13.63;2.92;;;21.10;99.90;;;;;;4989300;28;38523;-75
2023/08/21 07:39:04;;;;;;;9.77;3.28;;;21.20;99.90;;;;;;4993645;28;37968;-75
2023/08/21 07:41:30;;;;;;;12.93;2.85;;;21.40;99.90;;;;;;4991494;28;36098;-76
2023/08/21 07:43:56;;;;;;;10.45;3.42;;;21.60;99.90;;;;;;4993675;28;37900;-76
2023/08/21 07:46:23;;;;;;;9.18;3.15;;;21.70;99.90;;;;;;4992114;28;37990;-75
2023/08/21 07:48:50;;;;;;;10.25;3.00;;;21.80;99.90;;;;;;4980777;28;36812;-74
2023/08/21 07:51:16;;;;;;;17.27;3.35;;;21.90;99.90;;;;;;5009786;28;36209;-75
2023/08/21 07:53:42;;;;;;;6.10;2.25;;;22.00;99.90;;;;;;4995665;28;39831;-75
2023/08/21 07:56:08;;;;;;;10.73;2.80;;;22.10;99.90;;;;;;4992664;28;37939;-74
2023/08/21 07:58:35;;;;;;;9.43;2.95;;;22.20;99.90;;;;;;4992229;28;37657;-76
2023/08/21 08:01:01;;;;;;;9.60;2.60;;;22.40;99.90;;;;;;5001152;28;36622;-75
2023/08/21 08:03:27;;;;;;;7.38;1.90;;;22.40;99.90;;;;;;4993924;28;38970;-75
2023/08/21 08:05:53;;;;;;;7.35;2.00;;;22.50;99.90;;;;;;4995360;28;39230;-74
2023/08/21 08:08:19;;;;;;;9.32;2.38;;;22.60;99.90;;;;;;4995798;28;38451;-74
2023/08/21 08:10:46;;;;;;;8.10;1.98;;;22.80;99.90;;;;;;4988610;28;35932;-75
2023/08/21 08:13:12;;;;;;;7.65;2.22;;;23.10;99.90;;;;;;4992316;28;38444;-74
2023/08/21 08:15:38;;;;;;;6.95;1.77;;;23.20;99.90;;;;;;4992668;28;38682;-75
2023/08/21 08:18:10;;;;;;;9.18;2.05;;;23.30;99.90;;;;;;5000496;28;20928;-75
2023/08/21 08:20:36;;;;;;;6.07;2.15;;;23.40;99.90;;;;;;5003902;28;37705;-75
2023/08/21 08:23:02;;;;;;;5.43;1.70;;;23.40;99.90;;;;;;4998277;28;38267;-76
2023/08/21 08:25:29;;;;;;;9.05;1.90;;;23.50;99.90;;;;;;5007577;28;38113;-75
2023/08/21 08:27:55;;;;;;;5.22;1.73;;;23.50;99.90;;;;;;4995580;28;38858;-75
2023/08/21 08:30:21;;;;;;;6.10;1.90;;;23.60;99.90;;;;;;4994280;28;37092;-75
2023/08/21 08:32:47;;;;;;;9.55;2.05;;;23.70;99.90;;;;;;4996384;28;37951;-75
2023/08/21 08:35:13;;;;;;;7.15;1.83;;;23.80;99.90;;;;;;4998910;28;38300;-75
2023/08/21 08:37:41;;;;;;;5.28;1.42;;;23.90;99.90;;;;;;4996024;28;37667;-75
2023/08/21 08:40:08;;;;;;;8.45;1.95;;;24.00;99.90;;;;;;5002601;28;35980;-77
2023/08/21 08:42:36;;;;;;;7.15;2.13;;;24.30;99.90;;;;;;4996026;28;39090;-77
2023/08/21 08:45:05;;;;;;;4.88;1.70;;;24.40;99.90;;;;;;5000240;28;37187;-77
2023/08/21 08:47:35;;;;;;;7.25;1.70;;;24.40;99.90;;;;;;4994883;28;47269;-77
2023/08/21 08:50:03;;;;;;;8.25;2.17;;;24.50;99.90;;;;;;4999672;28;37935;-77
2023/08/21 08:52:34;;;;;;;7.35;1.80;;;24.60;99.90;;;;;;5000943;28;37919;-78
2023/08/21 08:55:00;;;;;;;8.73;1.60;;;24.80;99.90;;;;;;5001114;28;38569;-77
2023/08/21 08:57:26;;;;;;;7.15;1.90;;;24.90;98.60;;;;;;4996733;28;36799;-77
2023/08/21 08:59:52;;;;;;;5.50;1.80;;;24.90;85.50;;;;;;4999843;28;37186;-78
2023/08/21 09:02:18;;;;;;;6.00;1.58;;;25.00;93.20;;;;;;4995895;28;38846;-77
2023/08/21 09:04:44;;;;;;;6.13;1.42;;;24.80;90.20;;;;;;4994439;28;39368;-77
2023/08/21 09:07:11;;;;;;;9.10;1.88;;;24.90;91.00;;;;;;4995092;28;38510;-77
2023/08/21 09:09:46;;;;;;;7.72;1.52;;;24.80;92.40;;;;;;5000271;28;37190;-76
2023/08/21 09:12:13;;;;;;;6.45;2.08;;;24.80;97.40;;;;;;4992885;28;39080;-76
2023/08/21 09:14:40;;;;;;;8.23;1.85;;;25.00;91.50;;;;;;4994939;28;37370;-76
2023/08/21 09:17:07;;;;;;;8.75;2.00;;;25.10;81.70;;;;;;4998214;28;37598;-75
2023/08/21 09:19:34;;;;;;;5.20;1.52;;;25.10;94.50;;;;;;4999456;28;36876;-75
2023/08/21 09:22:15;;;;;;;6.38;1.80;;;25.00;73.60;;;;;;5002258;28;37617;-76
2023/08/21 09:25:04;;;;;;;9.82;2.03;;;24.90;86.60;;;;;;4999206;28;47953;-76
2023/08/21 09:27:31;;;;;;;7.53;1.98;;;25.20;77.70;;;;;;5003026;28;47114;-76
2023/08/21 09:29:58;;;;;;;5.80;1.52;;;25.20;71.00;;;;;;5001196;28;37208;-78
2023/08/21 09:32:24;;;;;;;6.70;1.70;;;25.20;80.60;;;;;;5000413;28;41054;-78
2023/08/21 09:34:50;;;;;;;6.63;1.48;;;25.50;75.50;;;;;;5002053;28;38549;-78
2023/08/21 09:37:17;;;;;;;8.25;1.85;;;25.60;74.00;;;;;;5000762;28;36685;-77
2023/08/21 09:39:44;;;;;;;8.65;2.40;;;25.70;54.20;;;;;;5002875;28;36457;-77
2023/08/21 09:42:11;;;;;;;5.25;1.52;;;25.60;72.50;;;;;;5001183;28;40300;-77
2023/08/21 09:44:42;;;;;;;5.43;1.25;;;26.10;76.30;;;;;;5001536;28;37406;-77
2023/08/21 09:47:10;;;;;;;6.20;1.67;;;26.30;70.10;;;;;;5003345;28;37010;-77
2023/08/21 09:49:39;;;;;;;6.65;1.65;;;26.50;63.00;;;;;;5002131;28;37290;-77
2023/08/21 09:52:06;;;;;;;5.20;1.23;;;26.10;38.00;;;;;;5001527;28;38162;-78
2023/08/21 09:54:35;;;;;;;7.78;1.42;;;25.70;43.10;;;;;;5000919;28;39258;-77
2023/08/21 09:57:03;;;;;;;6.28;1.60;;;25.50;45.20;;;;;;5000617;28;36549;-78
2023/08/21 09:59:31;;;;;;;6.90;1.75;;;25.60;54.20;;;;;;4999356;28;48416;-77
2023/08/21 10:01:59;;;;;;;6.25;1.63;;;25.80;49.30;;;;;;5002262;28;37931;-76
2023/08/21 10:04:27;;;;;;;7.03;1.83;;;25.90;43.90;;;;;;5001797;28;37760;-77
2023/08/21 10:06:55;;;;;;;5.80;1.45;;;25.80;36.70;;;;;;4999958;28;38208;-77
2023/08/21 10:09:23;;;;;;;5.45;1.38;;;25.90;22.70;;;;;;4992389;28;37318;-77
2023/08/21 10:11:51;;;;;;;3.58;1.20;;;25.60;22.30;;;;;;5000155;28;39678;-78
2023/08/21 10:14:18;;;;;;;6.60;1.45;;;25.30;36.40;;;;;;5000112;28;37545;-77
2023/08/21 10:16:44;;;;;;;6.32;1.40;;;25.30;10.40;;;;;;5000212;28;37956;-74
2023/08/21 10:19:14;;;;;;;4.00;1.42;;;25.10;45.90;;;;;;5001132;28;36151;-74
2023/08/21 10:21:40;;;;;;;6.82;1.33;;;25.30;25.30;;;;;;5003075;28;39014;-77
2023/08/21 10:24:06;;;;;;;4.55;1.42;;;25.50;42.00;;;;;;5003822;28;38698;-76
2023/08/21 10:26:38;;;;;;;5.10;1.52;;;25.40;41.20;;;;;;5004197;28;38051;-76
2023/08/21 10:29:06;;;;;;;;;;;25.50;26.00;;;;;;5003219;28;38060;-76
2023/08/21 10:31:40;;;;;;;4.35;1.20;;;25.50;22.10;;;;;;4999101;28;39550;-74
2023/08/21 10:34:08;;;;;;;6.00;1.63;;;25.50;43.20;;;;;;4994830;28;37443;-74
2023/08/21 10:36:43;;;;;;;5.90;1.50;;;25.30;18.30;;;;;;4996259;28;37646;-75
2023/08/21 10:39:14;;;;;;;4.47;1.25;;;25.20;32.30;;;;;;4997334;28;37541;-75
2023/08/21 10:41:41;;;;;;;4.65;1.40;;;25.50;37.70;;;;;;5009880;28;37395;-77
2023/08/21 10:44:08;;;;;;;3.75;1.02;;;25.90;29.30;;;;;;4988562;28;37608;-78
2023/08/21 10:46:53;;;;;;;2.75;0.98;;;26.10;6.30;;;;;;4996320;28;37295;-76
2023/08/21 10:49:19;;;;;;;3.90;1.00;;;26.30;28.90;;;;;;5014463;28;36159;-76
2023/08/21 10:51:46;;;;;;;5.07;1.38;;;26.40;1.00;;;;;;4995133;28;39934;-76
2023/08/21 10:54:13;;;;;;;3.75;1.10;;;26.50;1.00;;;;;;4998746;28;39204;-76
2023/08/21 10:56:40;;;;;;;3.45;1.08;;;26.50;35.40;;;;;;4996461;28;37774;-78
2023/08/21 10:59:06;;;;;;;5.38;1.20;;;26.80;23.10;;;;;;5001697;28;34784;-78
2023/08/21 11:01:44;;;;;;;1.98;0.85;;;26.80;7.90;;;;;;4987652;28;38479;-75
2023/08/21 11:04:12;;;;;;;6.55;1.33;;;26.90;1.00;;;;;;4987403;28;38784;-78
2023/08/21 11:06:39;;;;;;;3.22;0.85;;;26.90;1.00;;;;;;4992394;28;36722;-75
2023/08/21 11:09:12;;;;;;;3.70;0.82;;;26.80;1.00;;;;;;4995469;28;37304;-76
2023/08/21 11:11:38;;;;;;;3.45;1.10;;;26.90;1.00;;;;;;4985282;28;39730;-75
2023/08/21 11:14:04;;;;;;;2.20;0.80;;;27.00;1.00;;;;;;4993074;28;40341;-76
2023/08/21 11:16:30;;;;;;;3.65;1.08;;;26.90;1.00;;;;;;5004785;28;37392;-76
2023/08/21 11:18:56;;;;;;;3.03;0.80;;;27.00;1.00;;;;;;5002994;28;37207;-75
2023/08/21 11:21:25;;;;;;;3.88;1.40;;;27.20;1.00;;;;;;5001383;28;39466;-75
2023/08/21 11:23:51;;;;;;;3.40;1.13;;;27.40;1.00;;;;;;5006849;28;38054;-75
2023/08/21 11:26:17;;;;;;;2.75;0.90;;;27.20;1.00;;;;;;5000940;28;36818;-75
2023/08/21 11:28:44;;;;;;;4.95;0.80;;;27.30;1.00;;;;;;4997450;28;35972;-75
2023/08/21 11:31:10;;;;;;;2.85;0.80;;;27.30;1.00;;;;;;5002284;28;39401;-75
2023/08/21 11:33:38;;;;;;;4.63;1.30;;;27.20;1.00;;;;;;4996128;28;36888;-76
2023/08/21 11:36:05;;;;;;;3.22;0.98;;;27.10;1.00;;;;;;4997943;28;36917;-75
2023/08/21 11:38:31;;;;;;;3.05;0.88;;;27.30;1.00;;;;;;4996026;28;37962;-75
2023/08/21 11:41:02;;;;;;;2.63;0.88;;;27.30;1.00;;;;;;5006651;28;38421;-76
2023/08/21 11:43:43;;;;;;;3.60;1.08;;;27.40;1.00;;;;;;5000503;28;47121;-75
2023/08/21 11:46:11;;;;;;;3.15;0.70;;;27.30;1.00;;;;;;5002500;28;36862;-73
2023/08/21 11:48:38;;;;;;;3.33;1.00;;;26.90;1.00;;;;;;5003960;28;36421;-75
2023/08/21 11:51:04;;;;;;;3.17;0.80;;;26.80;1.00;;;;;;4994497;28;39982;-75
2023/08/21 11:53:34;;;;;;;3.63;1.45;;;26.80;1.00;;;;;;5000961;28;38633;-76
2023/08/21 11:56:00;;;;;;;5.93;1.20;;;26.80;1.00;;;;;;5002453;28;38681;-76
2023/08/21 11:58:28;;;;;;;4.50;0.80;;;26.80;1.00;;;;;;4995989;28;47071;-75
2023/08/21 12:00:54;;;;;;;2.17;0.90;;;26.70;1.00;;;;;;4994062;28;37559;-76
2023/08/21 12:03:20;;;;;;;3.95;1.00;;;26.90;1.00;;;;;;4999279;28;39321;-76
2023/08/21 12:05:46;;;;;;;2.17;0.85;;;26.80;1.00;;;;;;4994738;28;37015;-76
2023/08/21 12:08:12;;;;;;;3.88;1.20;;;27.00;1.00;;;;;;4999161;28;37859;-76
2023/08/21 12:10:39;;;;;;;3.97;1.10;;;27.20;1.00;;;;;;5003920;28;37910;-76
2023/08/21 12:13:05;;;;;;;4.35;1.02;;;27.10;1.00;;;;;;4999529;28;38118;-76
2023/08/21 12:15:31;;;;;;;3.30;0.93;;;27.40;1.00;;;;;;4992152;28;36865;-76
2023/08/21 12:17:57;;;;;;;4.53;1.10;;;27.70;1.00;;;;;;5001177;28;36770;-75
2023/08/21 12:20:23;;;;;;;2.85;0.90;;;27.70;1.00;;;;;;5002849;28;38969;-76
2023/08/21 12:22:49;;;;;;;4.78;0.98;;;27.70;1.00;;;;;;5002283;28;37672;-76
2023/08/21 12:25:16;;;;;;;3.47;1.00;;;27.30;1.00;;;;;;5003959;28;37919;-75
2023/08/21 12:27:42;;;;;;;5.50;1.17;;;27.10;1.00;;;;;;5001032;28;36515;-76
2023/08/21 12:30:08;;;;;;;4.72;0.88;;;27.10;1.00;;;;;;4995886;28;39251;-75
2023/08/21 12:32:34;;;;;;;2.13;0.80;;;27.40;1.00;;;;;;5001686;28;37611;-76
2023/08/21 12:35:01;;;;;;;4.72;1.05;;;27.40;1.00;;;;;;4993706;28;36152;-75
2023/08/21 12:37:27;;;;;;;3.03;1.00;;;27.30;1.00;;;;;;4998115;28;37842;-75
2023/08/21 12:39:54;;;;;;;3.70;0.82;;;27.30;1.00;;;;;;4999437;28;37537;-75
2023/08/21 12:42:21;;;;;;;5.70;1.20;;;27.30;1.00;;;;;;4998098;28;37712;-78
2023/08/21 12:44:47;;;;;;;4.18;0.90;;;27.40;1.00;;;;;;4996868;28;38484;-76
2023/08/21 12:47:13;;;;;;;1.70;0.57;;;27.40;1.00;;;;;;4995276;28;38382;-77